12°C Temp
10°C Dewpoint
% Humidity
Temperature
5 KM/H
3 MPH
3 KTS
60°
East North
East

Wind Speed
Clear
Conditions
Pressure 1028.92 (hPa) - 30.38 (in)
Visibility 6.2 (mi) - 10.0 (km)

Current Conditions
EGOV
Location 9(mi)
Metar :EGOV 192150Z AUTO 06003KT 9999 NCD 12/10 Q1029
Thu 19th September 22:50 pm

Airport
  Metar Aviation API Data Provided by https://www.checkwx.com/ PHP scripts by weather34.com ©2019